Time;durP1;ratioP1;P1;durP2;ratioP2;P2;SDS_P1;SDS_P2;PMS_P1;PMS_P2;Temp;Humidity;BMP_temperature;BMP_pressure;BME280_temperature;BME280_humidity;BME280_pressure;Samples;Min_cycle;Max_cycle;Signal;HPM_P1;HPM_P2
2022/03/10 00:01:05;;;;;;;;;;;9.00;99.90;;;;;;4920704;29;19931;-86
2022/03/10 00:03:34;;;;;;;;;;;9.00;99.90;;;;;;4922102;29;19927;-86
2022/03/10 00:06:05;;;;;;;;;;;9.00;99.90;;;;;;4905578;29;19942;-84
2022/03/10 00:08:32;;;;;;;;;;;8.90;99.90;;;;;;4904264;29;19923;-84
2022/03/10 00:11:00;;;;;;;;;;;8.90;99.90;;;;;;4915905;29;19927;-86
2022/03/10 00:13:30;;;;;;;;;;;8.80;99.90;;;;;;4905170;29;19928;-84
2022/03/10 00:15:59;;;;;;;;;;;8.80;99.90;;;;;;4921997;29;20306;-84
2022/03/10 00:18:26;;;;;;;;;;;8.80;99.90;;;;;;4920005;29;19931;-84
2022/03/10 00:20:55;;;;;;;;;;;8.10;99.90;;;;;;4921869;29;19931;-84
2022/03/10 00:23:24;;;;;;;;;;;8.70;99.90;;;;;;4921630;29;19938;-84
2022/03/10 00:26:05;;;;;;;;;;;8.60;99.90;;;;;;4890617;29;19938;-86
2022/03/10 00:28:35;;;;;;;;;;;8.60;99.90;;;;;;4921811;29;19931;-83
2022/03/10 00:31:02;;;;;;;;;;;8.50;99.90;;;;;;4906206;29;19927;-83
2022/03/10 00:33:32;;;;;;;;;;;8.50;99.90;;;;;;4920479;29;19927;-83
2022/03/10 00:36:00;;;;;;;;;;;8.50;99.90;;;;;;4912442;29;19927;-84
2022/03/10 00:38:29;;;;;;;;;;;8.50;99.90;;;;;;4897093;29;19927;-84
2022/03/10 00:40:56;;;;;;;;;;;8.50;99.90;;;;;;4907566;29;19927;-86
2022/03/10 00:43:26;;;;;;;;;;;8.60;99.90;;;;;;4908285;29;20387;-85
2022/03/10 00:45:54;;;;;;;;;;;8.60;99.90;;;;;;4907964;29;19931;-84
2022/03/10 00:48:24;;;;;;;;;;;8.60;99.90;;;;;;4909486;29;19928;-84
2022/03/10 00:50:56;;;;;;;;;;;8.60;99.90;;;;;;4879405;29;19931;-84
2022/03/10 00:53:29;;;;;;;;;;;8.60;99.90;;;;;;4909808;29;19962;-85
2022/03/10 00:55:57;;;;;;;;;;;8.70;99.90;;;;;;4923782;29;20378;-83
2022/03/10 00:58:28;;;;;;;;;;;8.70;99.90;;;;;;4911242;29;19931;-84
2022/03/10 01:00:56;;;;;;;;;;;8.70;99.90;;;;;;4908042;29;19931;-86
2022/03/10 01:03:25;;;;;;;;;;;8.80;99.90;;;;;;4909465;29;19955;-85
2022/03/10 01:05:53;;;;;;;;;;;8.80;99.90;;;;;;4924853;29;20302;-84
2022/03/10 01:08:24;;;;;;;;;;;8.80;99.90;;;;;;4893464;29;19926;-83
2022/03/10 01:11:03;;;;;;;;;;;8.80;99.90;;;;;;4894547;29;19938;-85
2022/03/10 01:13:32;;;;;;;;;;;8.80;99.90;;;;;;4893065;29;19927;-84
2022/03/10 01:16:01;;;;;;;;;;;8.80;99.90;;;;;;4909604;29;19934;-83
2022/03/10 01:18:32;;;;;;;;;;;8.90;99.90;;;;;;4926754;29;19927;-83
2022/03/10 01:21:01;;;;;;;;;;;9.00;99.90;;;;;;4909454;29;20302;-84
2022/03/10 01:23:33;;;;;;;;;;;8.90;99.90;;;;;;4908689;29;19928;-85
2022/03/10 01:26:02;;;;;;;;;;;8.90;99.90;;;;;;4896794;29;19927;-82
2022/03/10 01:28:30;;;;;;;;;;;8.90;99.90;;;;;;4901870;29;19938;-86
2022/03/10 01:31:04;;;;;;;;;;;8.90;99.90;;;;;;4932545;29;19931;-82
2022/03/10 01:33:34;;;;;;;;;;;8.90;99.90;;;;;;4913154;29;19935;-83
2022/03/10 01:36:02;;;;;;;;;;;8.90;99.90;;;;;;4909622;29;19927;-84
2022/03/10 01:38:30;;;;;;;;;;;8.90;99.90;;;;;;4924335;29;19927;-86
2022/03/10 01:41:02;;;;;;;;;;;8.90;99.90;;;;;;4919046;29;19927;-85
2022/03/10 01:43:31;;;;;;;;;;;8.80;99.90;;;;;;4923152;29;19949;-86
2022/03/10 01:46:02;;;;;;;;;;;8.80;99.90;;;;;;4922774;29;19927;-82
2022/03/10 01:48:31;;;;;;;;;;;8.80;99.90;;;;;;4924160;29;19934;-84
2022/03/10 01:51:00;;;;;;;;;;;8.70;99.90;;;;;;4909584;29;19927;-83
2022/03/10 01:53:27;;;;;;;;;;;8.70;99.90;;;;;;4944114;29;19930;-83
2022/03/10 01:55:55;;;;;;;;;;;8.70;99.90;;;;;;4945198;29;20402;-84
2022/03/10 01:58:23;;;;;;;;;;;8.60;99.90;;;;;;4919045;29;19927;-84
2022/03/10 02:00:56;;;;;;;;;;;8.60;99.90;;;;;;4924692;29;19927;-83
2022/03/10 02:03:24;;;;;;;;;;;8.50;99.90;;;;;;4891528;29;19931;-85
2022/03/10 02:05:52;;;;;;;;;;;8.50;99.90;;;;;;4924824;29;19927;-83
2022/03/10 02:11:07;;;;;;;;;;;8.40;99.90;;;;;;4907521;29;19939;-83
2022/03/10 02:13:36;;;;;;;;;;;8.30;99.90;;;;;;4925420;29;19927;-84
2022/03/10 02:18:50;;;;;;;;;;;8.30;99.90;;;;;;4925790;29;19931;-83
2022/03/10 02:21:18;;;;;;;;;;;8.20;99.90;;;;;;4926261;29;19931;-83
2022/03/10 02:23:46;;;;;;;;;;;8.20;99.90;;;;;;4940725;29;20252;-82
2022/03/10 02:26:16;;;;;;;;;;;8.70;99.90;;;;;;4924368;29;19931;-84
2022/03/10 02:28:46;;;;;;;;;;;8.30;99.90;;;;;;4925424;29;19928;-84
2022/03/10 02:31:16;;;;;;;;;;;8.10;99.90;;;;;;4908114;29;20381;-86
2022/03/10 02:33:46;;;;;;;;;;;8.00;99.90;;;;;;4922332;29;19927;-84
2022/03/10 02:36:14;;;;;;;;;;;8.00;99.90;;;;;;4923679;29;19934;-86
2022/03/10 02:38:43;;;;;;;;;;;8.00;99.90;;;;;;4892964;29;19933;-87
2022/03/10 02:41:10;;;;;;;;;;;8.00;99.90;;;;;;4907721;29;19931;-84
2022/03/10 02:43:38;;;;;;;;;;;8.00;99.90;;;;;;4925581;29;19927;-85
2022/03/10 02:46:07;;;;;;;;;;;8.00;99.90;;;;;;4943713;29;19927;-83
2022/03/10 02:48:37;;;;;;;;;;;7.20;99.90;;;;;;4924985;29;19934;-84
2022/03/10 02:51:05;;;;;;;;;;;8.00;99.90;;;;;;4890488;29;19938;-85
2022/03/10 02:53:32;;;;;;;;;;;7.90;99.90;;;;;;4906368;29;19935;-84
2022/03/10 02:56:00;;;;;;;;;;;7.90;99.90;;;;;;4906536;29;19927;-87
2022/03/10 02:58:28;;;;;;;;;;;7.90;99.90;;;;;;4906037;29;19928;-84
2022/03/10 03:00:57;;;;;;;;;;;7.90;99.90;;;;;;4922663;29;19934;-84
2022/03/10 03:03:29;;;;;;;;;;;7.90;99.90;;;;;;4923851;29;19926;-87
2022/03/10 03:05:57;;;;;;;;;;;7.80;99.90;;;;;;4906835;29;20333;-83
2022/03/10 03:08:26;;;;;;;;;;;7.90;99.90;;;;;;4924161;29;19934;-82
2022/03/10 03:10:53;;;;;;;;;;;7.80;99.90;;;;;;4912523;29;19935;-80
2022/03/10 03:13:22;;;;;;;;;;;7.80;99.90;;;;;;4907668;29;19950;-83
2022/03/10 03:15:51;;;;;;;;;;;7.70;99.90;;;;;;4918308;29;19927;-83
2022/03/10 03:18:19;;;;;;;;;;;7.70;99.90;;;;;;4943666;29;19927;-84
2022/03/10 03:20:47;;;;;;;;;;;7.70;99.90;;;;;;4934168;29;20387;-85
2022/03/10 03:23:17;;;;;;;;;;;7.70;99.90;;;;;;4907822;29;20421;-84
2022/03/10 03:25:48;;;;;;;;;;;7.50;99.90;;;;;;4927547;29;19928;-85
2022/03/10 03:28:16;;;;;;;;;;;7.70;99.90;;;;;;4902584;29;19934;-84
2022/03/10 03:30:50;;;;;;;;;;;7.70;99.90;;;;;;4925458;29;20280;-82
2022/03/10 03:33:17;;;;;;;;;;;7.70;99.90;;;;;;4911365;29;19941;-84
2022/03/10 03:35:50;;;;;;;;;;;7.80;99.90;;;;;;4927931;29;19938;-84
2022/03/10 03:38:18;;;;;;;;;;;7.60;99.90;;;;;;4910900;29;19927;-87
2022/03/10 03:40:48;;;;;;;;;;;7.60;99.90;;;;;;4910544;29;19928;-82
2022/03/10 03:43:16;;;;;;;;;;;7.60;99.90;;;;;;4880148;29;19927;-84
2022/03/10 03:45:43;;;;;;;;;;;7.10;99.90;;;;;;4911663;29;19927;-82
2022/03/10 03:48:11;;;;;;;;;;;7.50;99.90;;;;;;4893438;29;19935;-82
2022/03/10 03:50:44;;;;;;;;;;;7.50;99.90;;;;;;4910443;29;19935;-83
2022/03/10 03:53:15;;;;;;;;;;;7.40;99.90;;;;;;4909248;29;19927;-84
2022/03/10 03:55:42;;;;;;;;;;;7.40;99.90;;;;;;4894121;29;19928;-84
2022/03/10 03:58:11;;;;;;;;;;;7.30;99.90;;;;;;4896298;29;19928;-87
2022/03/10 04:00:39;;;;;;;;;;;7.30;99.90;;;;;;4874128;29;20146;-83
2022/03/10 04:03:08;;;;;;;;;;;7.30;99.90;;;;;;4889728;29;20435;-82
2022/03/10 04:05:37;;;;;;;;;;;7.30;99.90;;;;;;4889205;29;19928;-84
2022/03/10 04:08:05;;;;;;;;;;;7.20;99.90;;;;;;4888506;29;19939;-83
2022/03/10 04:10:35;;;;;;;;;;;7.20;99.90;;;;;;4887730;29;19939;-84
2022/03/10 04:13:03;;;;;;;;;;;7.10;99.90;;;;;;4872646;29;19935;-83
2022/03/10 04:15:36;;;;;;;;;;;7.10;99.90;;;;;;4888146;29;19950;-86
2022/03/10 04:18:04;;;;;;;;;;;7.00;99.90;;;;;;4886190;29;20269;-83
2022/03/10 04:20:34;;;;;;;;;;;7.00;99.90;;;;;;4886466;29;19928;-82
2022/03/10 04:23:03;;;;;;;;;;;6.90;99.90;;;;;;4887316;29;19947;-82
2022/03/10 04:25:32;;;;;;;;;;;6.90;99.90;;;;;;4870223;29;19932;-83
2022/03/10 04:28:01;;;;;;;;;;;6.90;99.90;;;;;;4870240;29;19932;-85
2022/03/10 04:30:31;;;;;;;;;;;6.80;99.90;;;;;;4879340;29;19951;-83
2022/03/10 04:33:00;;;;;;;;;;;6.80;99.90;;;;;;4875544;29;19928;-83
2022/03/10 04:35:28;;;;;;;;;;;6.80;99.90;;;;;;4910477;29;19961;-85
2022/03/10 04:37:55;;;;;;;;;;;6.80;99.90;;;;;;4534787;29;10000254;-83
2022/03/10 04:40:24;;;;;;;;;;;6.70;99.90;;;;;;4882634;29;19951;-82
2022/03/10 04:42:52;;;;;;;;;;;6.80;99.90;;;;;;4884511;29;19928;-83
2022/03/10 04:45:21;;;;;;;;;;;6.80;99.90;;;;;;4886204;29;19939;-83
2022/03/10 04:47:49;;;;;;;;;;;6.90;99.90;;;;;;4897349;29;19927;-83
2022/03/10 04:50:18;;;;;;;;;;;6.80;99.90;;;;;;4917946;29;19946;-82
2022/03/10 04:52:47;;;;;;;;;;;6.80;99.90;;;;;;4917844;29;19937;-82
2022/03/10 04:55:15;;;;;;;;;;;6.80;99.90;;;;;;4900385;29;19942;-83
2022/03/10 04:58:11;;;;;;;;;;;6.80;99.90;;;;;;4883059;29;19927;-83
2022/03/10 05:00:38;;;;;;;;;;;6.80;99.90;;;;;;4941805;29;19927;-83
2022/03/10 05:03:07;;;;;;;;;;;5.10;99.90;;;;;;4926703;29;19927;-83
2022/03/10 05:05:35;;;;;;;;;;;6.30;99.90;;;;;;4924883;29;19950;-84
2022/03/10 05:08:04;;;;;;;;;;;6.70;99.90;;;;;;4896041;29;19933;-84
2022/03/10 05:10:32;;;;;;;;;;;6.70;99.90;;;;;;4926784;29;19931;-87
2022/03/10 05:13:01;;;;;;;;;;;6.70;99.90;;;;;;4926911;29;19927;-87
2022/03/10 05:15:31;;;;;;;;;;;6.70;99.90;;;;;;4910528;29;19927;-86
2022/03/10 05:18:01;;;;;;;;;;;6.80;99.90;;;;;;4911495;29;19943;-85
2022/03/10 05:20:30;;;;;;;;;;;6.70;99.90;;;;;;4910074;29;19927;-87
2022/03/10 05:23:01;;;;;;;;;;;6.70;99.90;;;;;;4927552;29;19938;-83
2022/03/10 05:25:37;;;;;;;;;;;6.70;99.90;;;;;;4931351;29;19931;-82
2022/03/10 05:28:11;;;;;;;;;;;6.70;99.90;;;;;;4921241;29;19927;-84
2022/03/10 05:30:40;;;;;;;;;;;6.50;99.90;;;;;;4916131;29;19949;-82
2022/03/10 05:33:09;;;;;;;;;;;6.50;99.90;;;;;;4919954;29;19941;-83
2022/03/10 05:35:44;;;;;;;;;;;6.60;99.90;;;;;;4931767;29;20287;-82
2022/03/10 05:38:13;;;;;;;;;;;6.50;99.90;;;;;;4914733;29;19931;-82
2022/03/10 05:40:41;;;;;;;;;;;6.50;99.90;;;;;;4924472;29;20689;-81
2022/03/10 05:43:09;;;;;;;;;;;6.50;99.90;;;;;;4916792;29;20020;-83
2022/03/10 05:45:37;;;;;;;;;;;6.50;99.90;;;;;;4912866;29;19927;-83
2022/03/10 05:48:05;;;;;;;;;;;6.50;99.90;;;;;;4910034;29;20438;-84
2022/03/10 05:50:35;;;;;;;;;;;6.60;99.90;;;;;;4909231;29;19927;-84
2022/03/10 05:53:06;;;;;;;;;;;6.50;99.90;;;;;;4909666;29;19931;-82
2022/03/10 05:55:41;;;;;;;;;;;6.50;99.90;;;;;;4932543;29;20008;-83
2022/03/10 05:58:11;;;;;;;;;;;6.60;99.90;;;;;;4928407;29;19930;-82
2022/03/10 06:00:44;;;;;;;;;;;6.60;99.90;;;;;;4923848;29;19927;-83
2022/03/10 06:03:19;;;;;;;;;;;6.70;99.90;;;;;;4911036;29;19928;-83
2022/03/10 06:05:52;;;;;;;;;;;6.70;99.90;;;;;;4926311;29;19947;-85
2022/03/10 06:08:23;;;;;;;;;;;6.70;99.90;;;;;;4910206;29;19938;-85
2022/03/10 06:10:52;;;;;;;;;;;6.80;99.90;;;;;;4894314;29;19935;-87
2022/03/10 06:13:20;;;;;;;;;;;6.70;99.90;;;;;;4894008;29;20309;-84
2022/03/10 06:15:51;;;;;;;;;;;6.80;99.90;;;;;;4926308;29;20698;-81
2022/03/10 06:18:21;;;;;;;;;;;6.80;99.90;;;;;;4927074;29;19931;-82
2022/03/10 06:20:55;;;;;;;;;;;7.00;99.90;;;;;;4911390;29;19924;-82
2022/03/10 06:23:24;;;;;;;;;;;6.90;99.90;;;;;;4929822;29;19935;-81
2022/03/10 06:25:56;;;;;;;;;;;7.20;99.90;;;;;;4914125;29;20330;-82
2022/03/10 06:28:25;;;;;;;;;;;7.10;99.90;;;;;;4886312;29;20500;-82
2022/03/10 06:30:55;;;;;;;;;;;7.20;99.90;;;;;;4920678;29;19931;-84
2022/03/10 06:33:26;;;;;;;;;;;7.20;99.90;;;;;;4922717;29;20371;-84
2022/03/10 06:35:56;;;;;;;;;;;7.30;99.90;;;;;;4894948;29;20089;-84
2022/03/10 06:38:23;;;;;;;;;;;8.00;99.90;;;;;;4951538;29;19928;-86
2022/03/10 06:40:53;;;;;;;;;;;7.40;99.90;;;;;;4910628;29;19928;-88
2022/03/10 06:43:21;;;;;;;;;;;7.40;99.90;;;;;;4907383;29;19927;-85
2022/03/10 06:45:50;;;;;;;;;;;7.50;99.90;;;;;;4891961;29;20274;-84
2022/03/10 06:48:20;;;;;;;;;;;7.50;99.90;;;;;;4906415;29;19927;-82
2022/03/10 06:50:47;;;;;;;;;;;7.60;99.90;;;;;;4928146;29;19930;-83
2022/03/10 06:53:16;;;;;;;;;;;7.60;99.90;;;;;;4924723;29;19927;-83
2022/03/10 06:55:49;;;;;;;;;;;7.20;99.90;;;;;;4937790;29;19931;-81
2022/03/10 06:58:19;;;;;;;;;;;7.80;99.90;;;;;;4914683;29;19972;-85
2022/03/10 07:00:51;;;;;;;;;;;7.80;99.90;;;;;;4935504;29;20120;-85
2022/03/10 07:03:26;;;;;;;;;;;8.00;99.90;;;;;;4913573;29;19934;-87
2022/03/10 07:05:59;;;;;;;;;;;8.00;99.90;;;;;;4890183;29;19931;-84
2022/03/10 07:08:31;;;;;;;;;;;8.10;99.90;;;;;;4895005;29;19928;-83
2022/03/10 07:10:59;;;;;;;;;;;8.10;99.90;;;;;;4926806;29;19938;-83
2022/03/10 07:13:27;;;;;;;;;;;8.20;99.90;;;;;;4922783;29;19934;-83
2022/03/10 07:16:02;;;;;;;;;;;8.30;99.90;;;;;;4928734;29;19933;-83
2022/03/10 07:18:30;;;;;;;;;;;8.40;99.90;;;;;;4919581;29;19927;-84
2022/03/10 07:21:02;;;;;;;;;;;8.30;99.90;;;;;;4917879;29;20332;-86
2022/03/10 07:23:39;;;;;;;;;;;8.50;99.90;;;;;;4915598;29;19927;-89
2022/03/10 07:26:12;;;;;;;;;;;8.60;99.90;;;;;;4930014;29;19937;-86
2022/03/10 07:28:43;;;;;;;;;;;8.70;99.90;;;;;;4934881;29;19928;-87
2022/03/10 07:31:11;;;;;;;;;;;8.80;99.90;;;;;;4915974;29;19927;-89
2022/03/10 07:33:43;;;;;;;;;;;8.90;99.90;;;;;;4922839;29;19934;-86
2022/03/10 07:36:18;;;;;;;;;;;8.90;99.90;;;;;;4941878;29;19927;-86
2022/03/10 07:38:46;;;;;;;;;;;9.00;99.90;;;;;;4895384;29;19927;-90
2022/03/10 07:41:13;;;;;;;;;;;9.10;99.90;;;;;;4918491;29;19923;-89
2022/03/10 07:43:41;;;;;;;;;;;9.20;99.90;;;;;;4944755;29;19937;-89
2022/03/10 07:46:27;;;;;;;;;;;9.30;99.90;;;;;;4900274;29;19911;-84
2022/03/10 07:48:56;;;;;;;;;;;9.40;99.90;;;;;;4929942;29;19931;-83
2022/03/10 07:51:32;;;;;;;;;;;9.80;99.90;;;;;;4933936;29;19930;-83
2022/03/10 07:54:26;;;;;;;;;;;8.10;99.90;;;;;;4942685;29;19927;-83
2022/03/10 07:56:57;;;;;;;;;;;9.70;99.90;;;;;;4919345;29;19934;-84
2022/03/10 07:59:33;;;;;;;;;;;9.10;99.90;;;;;;4912081;29;19933;-84
2022/03/10 08:02:12;;;;;;;;;;;9.90;99.90;;;;;;4909070;29;19933;-84
2022/03/10 08:07:44;;;;;;;;;;;9.90;99.90;;;;;;4890301;29;19928;-83
2022/03/10 08:10:26;;;;;;;;;;;9.90;99.90;;;;;;4868687;29;19928;-84
2022/03/10 08:12:56;;;;;;;;;;;10.10;99.90;;;;;;4900836;29;20409;-83
2022/03/10 08:15:28;;;;;;;;;;;10.00;99.90;;;;;;4877548;29;19939;-84
2022/03/10 08:18:00;;;;;;;;;;;10.10;99.90;;;;;;4892200;29;19927;-83
2022/03/10 08:20:29;;;;;;;;;;;10.20;99.90;;;;;;4906891;29;19927;-85
2022/03/10 08:22:57;;;;;;;;;;;10.50;99.90;;;;;;4891701;29;19932;-84
2022/03/10 08:25:25;;;;;;;;;;;10.30;99.90;;;;;;4889600;29;20386;-84
2022/03/10 08:28:16;;;;;;;;;;;;;;;;;;;;;
2022/03/10 08:30:51;;;;;;;;;;;10.50;99.90;;;;;;4886336;29;19932;-84
2022/03/10 08:33:20;;;;;;;;;;;10.70;99.90;;;;;;4873650;29;19951;-85
2022/03/10 08:35:50;;;;;;;;;;;10.60;99.90;;;;;;4887616;29;19932;-85
2022/03/10 08:38:29;;;;;;;;;;;10.70;99.90;;;;;;4895417;29;20424;-84
2022/03/10 08:41:08;;;;;;;;;;;10.70;99.90;;;;;;4912262;29;19932;-85
2022/03/10 08:43:40;;;;;;;;;;;10.90;99.90;;;;;;4894159;29;19927;-84
2022/03/10 08:46:13;;;;;;;;;;;11.20;99.90;;;;;;4891287;29;19932;-84
2022/03/10 08:48:45;;;;;;;;;;;11.10;99.90;;;;;;4899313;29;19928;-83
2022/03/10 08:51:20;;;;;;;;;;;11.10;99.90;;;;;;4889521;29;19931;-83
2022/03/10 08:53:59;;;;;;;;;;;11.10;99.90;;;;;;4892644;29;19934;-83
2022/03/10 08:56:29;;;;;;;;;;;11.20;99.90;;;;;;4861698;29;19920;-84
2022/03/10 08:59:03;;;;;;;;;;;11.30;99.90;;;;;;4889933;29;19938;-84
2022/03/10 09:01:31;;;;;;;;;;;12.30;99.90;;;;;;4884043;29;20306;-84
2022/03/10 09:04:03;;;;;;;;;;;11.30;99.90;;;;;;4869631;29;19939;-85
2022/03/10 09:06:54;;;;;;;;;;;11.40;99.90;;;;;;4868970;29;19994;-83
2022/03/10 09:09:57;;;;;;;;;;;11.40;99.90;;;;;;4865426;29;19935;-84
2022/03/10 09:12:44;;;;;;;;;;;11.60;99.90;;;;;;4870781;29;20081;-83
2022/03/10 09:15:17;;;;;;;;;;;11.80;99.90;;;;;;4868456;29;19936;-83
2022/03/10 09:17:47;;;;;;;;;;;10.20;99.90;;;;;;4866654;29;19928;-84
2022/03/10 09:20:17;;;;;;;;;;;11.70;99.90;;;;;;4865261;29;20351;-83
2022/03/10 09:23:07;;;;;;;;;;;11.70;99.90;;;;;;4874682;29;19959;-82
2022/03/10 09:25:41;;;;;;;;;;;11.80;99.90;;;;;;4869368;29;19939;-82
2022/03/10 09:28:19;;;;;;;;;;;11.90;99.90;;;;;;4881697;29;19950;-83
2022/03/10 09:31:00;;;;;;;;;;;12.10;99.90;;;;;;4873124;29;19928;-84
2022/03/10 09:33:32;;;;;;;;;;;12.20;99.90;;;;;;4887060;29;19939;-85
2022/03/10 09:36:14;;;;;;;;;;;12.10;99.90;;;;;;4870221;29;19936;-84
2022/03/10 09:39:10;;;;;;;;;;;12.50;99.90;;;;;;4864794;29;20274;-84
2022/03/10 09:41:49;;;;;;;;;;;12.10;99.90;;;;;;4870523;29;19928;-83
2022/03/10 09:44:32;;;;;;;;;;;12.50;99.90;;;;;;4871474;29;19955;-85
2022/03/10 09:47:08;;;;;;;;;;;12.60;99.90;;;;;;4876845;29;19928;-84
2022/03/10 09:49:39;;;;;;;;;;;13.30;99.90;;;;;;4868931;29;19929;-83
2022/03/10 09:52:25;;;;;;;;;;;;;;;;;;;;;
2022/03/10 09:55:17;;;;;;;;;;;12.80;99.90;;;;;;4867378;29;19942;-83
2022/03/10 09:58:09;;;;;;;;;;;13.10;99.90;;;;;;4870455;29;19987;-84
2022/03/10 10:00:41;;;;;;;;;;;13.00;99.90;;;;;;4863796;29;19989;-85
2022/03/10 10:03:21;;;;;;;;;;;13.10;99.90;;;;;;4872055;29;19928;-84
2022/03/10 10:06:06;;;;;;;;;;;13.20;99.90;;;;;;4865781;29;19939;-84
2022/03/10 10:12:28;;;;;;;;;;;13.40;99.90;;;;;;4870533;29;19955;-84
2022/03/10 10:16:02;;;;;;;;;;;12.20;99.90;;;;;;4855701;29;19932;-84
2022/03/10 10:19:19;;;;;;;;;;;13.40;99.90;;;;;;4850319;29;19936;-85
2022/03/10 10:22:10;;;;;;;;;;;13.50;99.90;;;;;;4866168;29;20176;-84
2022/03/10 10:24:52;;;;;;;;;;;13.50;99.90;;;;;;4866712;29;19932;-83
2022/03/10 10:27:25;;;;;;;;;;;13.50;99.90;;;;;;4851850;29;19932;-84
2022/03/10 10:30:01;;;;;;;;;;;13.50;99.90;;;;;;4853276;29;20282;-84
2022/03/10 10:32:33;;;;;;;;;;;13.60;99.90;;;;;;4886182;29;19947;-83
2022/03/10 10:35:06;;;;;;;;;;;13.60;99.90;;;;;;4873996;29;19936;-83
2022/03/10 10:37:36;;;;;;;;;;;12.90;99.90;;;;;;4876734;29;19932;-84
2022/03/10 10:40:18;;;;;;;;;;;13.90;99.90;;;;;;4869429;29;19939;-85
2022/03/10 10:42:49;;;;;;;;;;;13.90;99.90;;;;;;4875712;29;19932;-84
2022/03/10 10:45:37;;;;;;;;;;;14.00;99.90;;;;;;4865991;29;19947;-85
2022/03/10 10:48:18;;;;;;;;;;;13.60;99.90;;;;;;4880368;29;19928;-84
2022/03/10 10:50:50;;;;;;;;;;;14.30;99.90;;;;;;4861677;29;19957;-83
2022/03/10 10:53:39;;;;;;;;;;;14.00;99.90;;;;;;4833460;29;19929;-84
2022/03/10 10:56:15;;;;;;;;;;;14.30;99.90;;;;;;4868557;29;19954;-84
2022/03/10 10:58:48;;;;;;;;;;;14.30;99.90;;;;;;4868261;29;19927;-85
2022/03/10 11:01:46;;;;;;;;;;;14.20;99.90;;;;;;4866045;29;20281;-85
2022/03/10 11:04:39;;;;;;;;;;;14.20;99.90;;;;;;4869530;29;19935;-85
2022/03/10 11:07:22;;;;;;;;;;;14.50;99.90;;;;;;4884528;29;20381;-85
2022/03/10 11:10:08;;;;;;;;;;;13.50;99.90;;;;;;4870399;29;19939;-84
2022/03/10 11:12:53;;;;;;;;;;;15.60;99.90;;;;;;4867513;29;19935;-86
2022/03/10 11:15:53;;;;;;;;;;;14.40;99.90;;;;;;4881106;29;19947;-85
2022/03/10 11:19:09;;;;;;;;;;;14.40;99.90;;;;;;4870904;29;19936;-85
2022/03/10 11:28:44;;;;;;;;;;;14.40;99.90;;;;;;4861800;29;19935;-86
2022/03/10 11:31:14;;;;;;;;;;;14.50;99.90;;;;;;4858009;29;19943;-85
2022/03/10 11:33:44;;;;;;;;;;;14.50;99.90;;;;;;4865298;29;19939;-85
2022/03/10 11:36:18;;;;;;;;;;;14.60;99.90;;;;;;4870898;29;19928;-86
2022/03/10 11:38:51;;;;;;;;;;;14.60;99.90;;;;;;4885633;29;19939;-85
2022/03/10 11:41:19;;;;;;;;;;;14.80;99.90;;;;;;4871169;29;20485;-86
2022/03/10 11:43:59;;;;;;;;;;;14.80;99.90;;;;;;4885787;29;19966;-86
2022/03/10 11:50:04;;;;;;;;;;;;;;;;;;;;;
2022/03/10 11:53:04;;;;;;;;;;;15.10;99.90;;;;;;4864722;29;19942;-85
2022/03/10 11:56:01;;;;;;;;;;;15.50;99.90;;;;;;4864758;29;19998;-86
2022/03/10 11:59:22;;;;;;;;;;;14.00;99.90;;;;;;4865319;29;19928;-84
2022/03/10 12:02:08;;;;;;;;;;;15.30;99.90;;;;;;4869749;29;19929;-85
2022/03/10 12:05:22;;;;;;;;;;;15.30;99.90;;;;;;4817754;29;20105;-84
2022/03/10 12:08:19;;;;;;;;;;;15.50;99.90;;;;;;4808200;29;19941;-85
2022/03/10 12:10:53;;;;;;;;;;;15.60;99.90;;;;;;4803524;29;19929;-85
2022/03/10 12:13:32;;;;;;;;;;;15.60;99.90;;;;;;4836907;29;19933;-84
2022/03/10 12:16:06;;;;;;;;;;;15.70;99.90;;;;;;4810903;29;19939;-85
2022/03/10 12:18:51;;;;;;;;;;;;;;;;;;;;;
2022/03/10 12:21:32;;;;;;;;;;;15.70;99.90;;;;;;4836683;29;19940;-85
2022/03/10 12:24:40;;;;;;;;;;;15.40;99.90;;;;;;4812922;29;19929;-85
2022/03/10 12:27:38;;;;;;;;;;;15.90;99.90;;;;;;4835584;29;19932;-84
2022/03/10 12:30:39;;;;;;;;;;;17.10;99.90;;;;;;4819160;29;19929;-83
2022/03/10 12:33:07;;;;;;;;;;;16.40;99.90;;;;;;4817199;29;19965;-82
2022/03/10 12:35:37;;;;;;;;;;;16.50;99.90;;;;;;4849150;29;19928;-85
2022/03/10 12:38:07;;;;;;;;;;;16.80;99.90;;;;;;4874121;29;19927;-84
2022/03/10 12:40:37;;;;;;;;;;;17.00;99.90;;;;;;4871538;29;19936;-85
2022/03/10 12:43:06;;;;;;;;;;;17.20;99.90;;;;;;4872564;29;19939;-83
2022/03/10 12:45:42;;;;;;;;;;;16.40;99.90;;;;;;4871517;29;19928;-84
2022/03/10 12:48:13;;;;;;;;;;;17.40;99.90;;;;;;4871107;29;20457;-83
2022/03/10 12:50:43;;;;;;;;;;;17.40;99.90;;;;;;4870692;29;19938;-82
2022/03/10 12:53:12;;;;;;;;;;;17.40;99.80;;;;;;4870778;29;19931;-82
2022/03/10 12:55:40;;;;;;;;;;;17.40;99.90;;;;;;4873082;29;19938;-84
2022/03/10 12:58:11;;;;;;;;;;;17.50;99.80;;;;;;4870915;29;19940;-83
2022/03/10 13:00:40;;;;;;;;;;;17.50;99.10;;;;;;4871578;29;19935;-82
2022/03/10 13:03:08;;;;;;;;;;;17.60;99.40;;;;;;4846222;29;19943;-82
2022/03/10 13:05:38;;;;;;;;;;;19.00;99.70;;;;;;4864626;29;19936;-83
2022/03/10 13:08:12;;;;;;;;;;;17.60;99.20;;;;;;4853114;29;19932;-82
2022/03/10 13:10:40;;;;;;;;;;;17.40;98.70;;;;;;4861814;29;20821;-83
2022/03/10 13:13:09;;;;;;;;;;;17.30;99.30;;;;;;4869381;29;19936;-83
2022/03/10 13:15:38;;;;;;;;;;;17.00;99.10;;;;;;4881191;29;20968;-83
2022/03/10 13:18:07;;;;;;;;;;;17.20;99.90;;;;;;4870198;29;20007;-84
2022/03/10 13:20:37;;;;;;;;;;;17.20;99.60;;;;;;4851266;29;19936;-83
2022/03/10 13:23:07;;;;;;;;;;;17.10;99.00;;;;;;4869846;29;19936;-84
2022/03/10 13:25:36;;;;;;;;;;;17.10;99.20;;;;;;4868431;29;19939;-85
2022/03/10 13:28:06;;;;;;;;;;;17.00;99.00;;;;;;4865361;29;19936;-83
2022/03/10 13:30:35;;;;;;;;;;;17.00;99.40;;;;;;4882353;29;19928;-83
2022/03/10 13:33:07;;;;;;;;;;;17.00;99.10;;;;;;4852479;29;19942;-85
2022/03/10 13:35:43;;;;;;;;;;;16.80;99.30;;;;;;4880473;29;19943;-88
2022/03/10 13:38:22;;;;;;;;;;;17.20;99.60;;;;;;4866785;29;19928;-82
2022/03/10 13:40:52;;;;;;;;;;;16.90;99.70;;;;;;4869385;29;19928;-82
2022/03/10 13:43:24;;;;;;;;;;;17.10;99.40;;;;;;4851566;29;19939;-83
2022/03/10 13:45:53;;;;;;;;;;;17.30;99.30;;;;;;4854165;29;19932;-83
2022/03/10 13:48:21;;;;;;;;;;;17.30;98.80;;;;;;4870543;29;19938;-83
2022/03/10 13:50:50;;;;;;;;;;;17.40;99.00;;;;;;4872021;29;19928;-83
2022/03/10 13:53:19;;;;;;;;;;;18.20;98.90;;;;;;4866337;29;19928;-82
2022/03/10 13:55:48;;;;;;;;;;;17.50;98.50;;;;;;4862886;29;20389;-83
2022/03/10 13:58:17;;;;;;;;;;;16.20;98.40;;;;;;4860119;29;19936;-82
2022/03/10 14:00:46;;;;;;;;;;;17.60;98.30;;;;;;4871761;29;19932;-85
2022/03/10 14:03:19;;;;;;;;;;;17.70;98.70;;;;;;4869112;29;19943;-83
2022/03/10 14:05:51;;;;;;;;;;;17.80;98.50;;;;;;4870411;29;19932;-83
2022/03/10 14:08:23;;;;;;;;;;;18.00;98.30;;;;;;4884790;29;19929;-83
2022/03/10 14:10:57;;;;;;;;;;;18.10;97.90;;;;;;4854112;29;19940;-83
2022/03/10 14:13:26;;;;;;;;;;;18.20;97.80;;;;;;4880588;29;19932;-83
2022/03/10 14:16:01;;;;;;;;;;;18.40;97.40;;;;;;4866675;29;19932;-84
2022/03/10 14:18:30;;;;;;;;;;;17.60;97.40;;;;;;4863100;29;19947;-84
2022/03/10 14:21:04;;;;;;;;;;;18.60;97.40;;;;;;4864544;29;19928;-84
2022/03/10 14:23:33;;;;;;;;;;;18.20;97.10;;;;;;4850758;29;19928;-83
2022/03/10 14:26:16;;;;;;;;;;;18.60;97.10;;;;;;4869704;29;19939;-83
2022/03/10 14:28:46;;;;;;;;;;;18.40;96.70;;;;;;4876761;29;19927;-84
2022/03/10 14:31:15;;;;;;;;;;;18.50;96.20;;;;;;4858063;29;19944;-84
2022/03/10 14:33:47;;;;;;;;;;;18.50;96.40;;;;;;4879119;29;19932;-84
2022/03/10 14:36:17;;;;;;;;;;;18.50;96.80;;;;;;4866890;29;19928;-84
2022/03/10 14:38:46;;;;;;;;;;;18.40;96.40;;;;;;4867222;29;19939;-84
2022/03/10 14:41:21;;;;;;;;;;;19.10;96.90;;;;;;4869875;29;19939;-84
2022/03/10 14:43:49;;;;;;;;;;;18.50;96.20;;;;;;4869753;29;19939;-83
2022/03/10 14:46:17;;;;;;;;;;;18.40;96.10;;;;;;4869408;29;19943;-84
2022/03/10 14:48:49;;;;;;;;;;;18.60;96.00;;;;;;4868547;29;20420;-84
2022/03/10 14:51:17;;;;;;;;;;;18.60;96.40;;;;;;4839693;29;19936;-83
2022/03/10 14:53:48;;;;;;;;;;;18.70;95.30;;;;;;4846758;29;19932;-84
2022/03/10 14:56:26;;;;;;;;;;;19.00;95.80;;;;;;4824731;29;19936;-84
2022/03/10 14:59:05;;;;;;;;;;;19.20;95.30;;;;;;4860994;29;19939;-85
2022/03/10 15:02:00;;;;;;;;;;;19.50;95.30;;;;;;4884036;29;19927;-85
2022/03/10 15:05:21;;;;;;;;;;;19.80;94.80;;;;;;4817913;29;20222;-84
2022/03/10 15:08:04;;;;;;;;;;;20.10;94.80;;;;;;4831609;29;20073;-85
2022/03/10 15:11:10;;;;;;;;;;;19.50;93.80;;;;;;4804310;29;19940;-84
2022/03/10 15:13:39;;;;;;;;;;;20.70;94.50;;;;;;4815834;29;19947;-84
2022/03/10 15:16:12;;;;;;;;;;;20.90;93.20;;;;;;4831881;29;19940;-82
2022/03/10 15:18:42;;;;;;;;;;;20.80;92.50;;;;;;4819648;29;19966;-82
2022/03/10 15:21:11;;;;;;;;;;;21.20;93.10;;;;;;4828774;29;19938;-82
2022/03/10 15:23:46;;;;;;;;;;;21.30;91.90;;;;;;4848308;29;19932;-81
2022/03/10 15:26:18;;;;;;;;;;;21.30;91.50;;;;;;4853819;29;19936;-81
2022/03/10 15:28:46;;;;;;;;;;;21.50;91.60;;;;;;4878912;29;19935;-80